createdAt,value
2018-12-05T00:00:49.250Z,8.7
2018-12-05T00:02:01.505Z,9.2
2018-12-05T00:03:13.723Z,8.9
2018-12-05T00:04:25.959Z,9.1
2018-12-05T00:05:38.105Z,8.5
2018-12-05T00:06:50.315Z,8.9
2018-12-05T00:08:02.408Z,9.5
2018-12-05T00:09:14.772Z,9.3
2018-12-05T00:10:26.833Z,9.8
2018-12-05T00:11:39.096Z,9.2
2018-12-05T00:12:51.301Z,9
2018-12-05T00:14:03.496Z,9.1
2018-12-05T00:15:15.678Z,9.2
2018-12-05T00:16:27.975Z,9.5
2018-12-05T00:17:40.069Z,9.4
2018-12-05T00:18:52.266Z,8.6
2018-12-05T00:20:04.375Z,9.4
2018-12-05T00:21:16.644Z,8.7
2018-12-05T00:22:28.757Z,8.7
2018-12-05T00:23:41.123Z,8
2018-12-05T00:24:53.161Z,8.8
2018-12-05T00:26:05.425Z,8.5
2018-12-05T00:27:17.657Z,8.7
2018-12-05T00:28:29.758Z,9.2
2018-12-05T00:29:42.121Z,8.3
2018-12-05T00:30:54.310Z,9.3
2018-12-05T00:32:06.514Z,8.8
2018-12-05T00:33:18.713Z,9.5
2018-12-05T00:34:30.731Z,8.8
2018-12-05T00:35:43.010Z,8.2
2018-12-05T00:36:55.256Z,9
2018-12-05T00:38:07.378Z,9
2018-12-05T00:39:19.698Z,8.8
2018-12-05T00:40:31.794Z,8.3
2018-12-05T00:41:43.916Z,9.7
2018-12-05T00:42:56.163Z,9
2018-12-05T00:44:10.053Z,9
2018-12-05T00:45:20.513Z,9.6
2018-12-05T00:46:32.691Z,9.3
2018-12-05T00:47:44.948Z,9.6
2018-12-05T00:48:57.159Z,9.1
2018-12-05T00:50:09.344Z,8.9
2018-12-05T00:51:21.638Z,9.9
2018-12-05T00:52:33.661Z,9
2018-12-05T00:53:45.864Z,9.5
2018-12-05T00:54:58.226Z,9.3
2018-12-05T00:56:10.640Z,9.8
2018-12-05T00:57:22.554Z,9.6
2018-12-05T00:58:34.642Z,9.6
2018-12-05T00:59:46.920Z,9.9
2018-12-05T01:00:59.107Z,10.1
2018-12-05T01:02:11.306Z,9.8
2018-12-05T01:03:23.590Z,10.5
2018-12-05T01:04:35.948Z,10.1
2018-12-05T01:05:47.890Z,10.3
2018-12-05T01:07:00.124Z,9.8
2018-12-05T01:08:12.205Z,11.4
2018-12-05T01:09:24.435Z,10.4
2018-12-05T01:10:36.683Z,10.7
2018-12-05T01:11:48.961Z,12.2
2018-12-05T01:13:00.995Z,10.6
2018-12-05T01:14:13.354Z,11.7
2018-12-05T01:15:25.551Z,10.8
2018-12-05T01:16:37.649Z,11.2
2018-12-05T01:17:49.779Z,11.5
2018-12-05T01:19:02.036Z,11.7
2018-12-05T01:20:14.164Z,12.4
2018-12-05T01:21:26.433Z,12.6
2018-12-05T01:22:38.656Z,12.2
2018-12-05T01:23:50.893Z,11.8
2018-12-05T01:25:03.076Z,12.5
2018-12-05T01:26:15.365Z,12.1
2018-12-05T01:27:27.459Z,12.6
2018-12-05T01:28:39.628Z,13.4
2018-12-05T01:29:51.744Z,13.8
2018-12-05T01:31:03.986Z,13.2
2018-12-05T01:32:16.122Z,13.9
2018-12-05T01:33:28.524Z,14
2018-12-05T01:34:40.645Z,13.2
2018-12-05T01:35:52.727Z,13
2018-12-05T01:37:04.904Z,13.2
2018-12-05T01:38:17.177Z,13.1
2018-12-05T01:39:29.385Z,13.4
2018-12-05T01:40:41.495Z,15
2018-12-05T01:41:53.677Z,16.1
2018-12-05T01:43:05.892Z,14.8
2018-12-05T01:44:18.155Z,13
2018-12-05T01:45:30.353Z,13.1
2018-12-05T01:46:42.538Z,13.1
2018-12-05T01:47:54.756Z,14.4
2018-12-05T01:49:06.966Z,13.9
2018-12-05T01:50:19.130Z,14.7
2018-12-05T01:51:31.418Z,13.8
2018-12-05T01:52:43.548Z,13.3
2018-12-05T01:53:55.694Z,13.2
2018-12-05T01:55:07.849Z,12.9
2018-12-05T01:56:20.115Z,13.9
2018-12-05T01:57:32.315Z,12
2018-12-05T01:58:44.440Z,12.3
2018-12-05T01:59:56.708Z,13.6
2018-12-05T02:01:09.022Z,12.7
2018-12-05T02:02:21.198Z,12.7
2018-12-05T02:03:33.298Z,12.7
2018-12-05T02:04:45.570Z,12.3
2018-12-05T02:05:57.692Z,13.9
2018-12-05T02:07:09.870Z,15.7
2018-12-05T02:08:22.049Z,13.4
2018-12-05T02:09:34.257Z,13.1
2018-12-05T02:10:46.386Z,15.1
2018-12-05T02:11:58.676Z,17.3
2018-12-05T02:13:10.875Z,20.1
2018-12-05T02:14:23.093Z,15.3
2018-12-05T02:15:35.327Z,14.3
2018-12-05T02:16:47.373Z,17.1
2018-12-05T02:17:59.632Z,14.5
2018-12-05T02:19:11.845Z,17.3
2018-12-05T02:20:24.029Z,15.2
2018-12-05T02:21:36.213Z,16.3
2018-12-05T02:22:48.383Z,19.4
2018-12-05T02:24:00.528Z,16.7
2018-12-05T02:25:12.806Z,16
2018-12-05T02:26:25.192Z,15.2
2018-12-05T02:27:37.232Z,15.6
2018-12-05T02:28:49.418Z,16.5
2018-12-05T02:30:01.600Z,18
2018-12-05T02:31:13.856Z,15.2
2018-12-05T02:32:26.049Z,17
2018-12-05T02:33:38.104Z,16.1
2018-12-05T02:34:50.386Z,16
2018-12-05T02:36:02.588Z,16.2
2018-12-05T02:37:14.706Z,17.3
2018-12-05T02:38:26.901Z,15.1
2018-12-05T02:39:39.256Z,15.8
2018-12-05T02:40:51.376Z,15.3
2018-12-05T02:42:03.532Z,17.2
2018-12-05T02:43:15.827Z,17.6
2018-12-05T02:44:27.878Z,18.2
2018-12-05T02:45:40.055Z,16.4
2018-12-05T02:46:52.254Z,19.8
2018-12-05T02:48:04.447Z,19.2
2018-12-05T02:49:16.759Z,17.3
2018-12-05T02:50:28.929Z,16.1
2018-12-05T02:51:41.205Z,16.3
2018-12-05T02:52:53.234Z,16.9
2018-12-05T02:54:06.006Z,16.7
2018-12-05T02:55:17.627Z,16.8
2018-12-05T02:56:29.813Z,18.1
2018-12-05T02:57:42.189Z,18
2018-12-05T02:58:54.289Z,16.7
2018-12-05T03:00:06.563Z,14.8
2018-12-05T03:01:18.714Z,14.9
2018-12-05T03:02:31.035Z,15.8
2018-12-05T03:03:43.182Z,14.7
2018-12-05T03:04:55.347Z,14.7
2018-12-05T03:06:07.464Z,14.6
2018-12-05T03:07:19.673Z,13.9
2018-12-05T03:08:31.848Z,14.2
2018-12-05T03:09:44.126Z,13
2018-12-05T03:10:56.171Z,13.9
2018-12-05T03:12:08.358Z,13.1
2018-12-05T03:13:20.561Z,13.1
2018-12-05T03:14:32.840Z,13.3
2018-12-05T03:15:45.061Z,13.4
2018-12-05T03:16:57.239Z,13.5
2018-12-05T03:18:09.375Z,13
2018-12-05T03:19:21.600Z,12.9
2018-12-05T03:20:33.776Z,14.3
2018-12-05T03:21:46.094Z,15.9
2018-12-05T03:22:58.192Z,15.4
2018-12-05T03:24:10.405Z,15.7
2018-12-05T03:25:22.512Z,15
2018-12-05T03:26:34.857Z,14.8
2018-12-05T03:27:47.084Z,14.7
2018-12-05T03:28:59.188Z,16.1
2018-12-05T03:30:11.445Z,14.8
2018-12-05T03:31:23.898Z,16.6
2018-12-05T03:32:35.801Z,15.6
2018-12-05T03:33:48.080Z,14.9
2018-12-05T03:35:00.176Z,16.8
2018-12-05T03:36:12.346Z,17.3
2018-12-05T03:37:24.460Z,17.1
2018-12-05T03:38:36.649Z,16
2018-12-05T03:39:48.951Z,16.3
2018-12-05T03:41:01.143Z,15.3
2018-12-05T03:42:13.388Z,17.1
2018-12-05T03:43:25.624Z,14.7
2018-12-05T03:44:37.721Z,18.4
2018-12-05T03:45:49.920Z,14.6
2018-12-05T03:47:02.010Z,16.7
2018-12-05T03:48:14.334Z,15.8
2018-12-05T03:49:26.406Z,15
2018-12-05T03:50:38.696Z,16.4
2018-12-05T03:51:50.994Z,15.7
2018-12-05T03:53:03.074Z,15.8
2018-12-05T03:54:15.179Z,14.7
2018-12-05T03:55:27.542Z,15.1
2018-12-05T03:56:39.566Z,14.3
2018-12-05T03:57:51.829Z,14.5
2018-12-05T03:59:03.973Z,17
2018-12-05T04:00:16.267Z,15.6
2018-12-05T04:01:28.415Z,14.2
2018-12-05T04:02:40.664Z,14.8
2018-12-05T04:03:52.843Z,15.3
2018-12-05T04:05:05.027Z,14.7
2018-12-05T04:06:17.199Z,14.9
2018-12-05T04:07:29.317Z,14.5
2018-12-05T04:08:41.532Z,14.9
2018-12-05T04:09:53.879Z,15.3
2018-12-05T04:11:07.152Z,13.9
2018-12-05T04:12:18.260Z,14.6
2018-12-05T04:13:30.303Z,13.1
2018-12-05T04:14:42.652Z,13.8
2018-12-05T04:15:54.787Z,14.4
2018-12-05T04:17:06.961Z,14.3
2018-12-05T04:18:19.066Z,14.2
2018-12-05T04:19:31.342Z,14.2
2018-12-05T04:20:43.469Z,13.3
2018-12-05T04:21:55.748Z,13.8
2018-12-05T04:23:07.842Z,15.2
2018-12-05T04:24:20.195Z,14.8
2018-12-05T04:25:32.224Z,14.2
2018-12-05T04:26:44.494Z,14.1
2018-12-05T04:27:56.790Z,13.5
2018-12-05T04:29:08.818Z,13.9
2018-12-05T04:30:21.163Z,13.5
2018-12-05T04:31:33.370Z,12.3
2018-12-05T04:32:45.459Z,12.5
2018-12-05T04:33:57.695Z,12.5
2018-12-05T04:35:09.769Z,13.3
2018-12-05T04:36:22.053Z,12.8
2018-12-05T04:37:34.260Z,13
2018-12-05T04:38:46.465Z,12.5
2018-12-05T04:39:58.724Z,12.9
2018-12-05T04:41:10.852Z,12.1
2018-12-05T04:42:22.990Z,12.7
2018-12-05T04:43:35.184Z,12.6
2018-12-05T04:44:47.359Z,12.6
2018-12-05T04:45:59.532Z,13
2018-12-05T04:47:11.838Z,12.2
2018-12-05T04:48:23.913Z,11.9
2018-12-05T04:49:36.181Z,11.6
2018-12-05T04:50:48.399Z,12.8
2018-12-05T04:52:00.669Z,11.8
2018-12-05T04:53:12.856Z,11.2
2018-12-05T04:54:24.888Z,11.4
2018-12-05T04:55:37.208Z,10.6
2018-12-05T04:56:49.371Z,10.6
2018-12-05T04:58:01.535Z,10.6
2018-12-05T04:59:13.670Z,10.5
2018-12-05T05:00:26.018Z,11.9
2018-12-05T05:01:38.083Z,10.6
2018-12-05T05:02:50.342Z,10.6
2018-12-05T05:04:02.531Z,11.1
2018-12-05T05:05:15.254Z,10.9
2018-12-05T05:06:26.837Z,10.8
2018-12-05T05:07:39.248Z,10.4
2018-12-05T05:08:51.296Z,11
2018-12-05T05:10:03.489Z,10.9
2018-12-05T05:11:15.616Z,11
2018-12-05T05:12:27.897Z,10.4
2018-12-05T05:13:40.076Z,11.3
2018-12-05T05:14:52.348Z,10.2
2018-12-05T05:16:04.640Z,10.4
2018-12-05T05:17:16.738Z,11.1
2018-12-05T05:18:28.763Z,10.4
2018-12-05T05:19:40.956Z,10.3
2018-12-05T05:20:53.321Z,10.6
2018-12-05T05:22:05.444Z,10.9
2018-12-05T05:23:17.960Z,10.2
2018-12-05T05:24:29.902Z,9.8
2018-12-05T05:25:41.932Z,10.8
2018-12-05T05:26:54.286Z,9.9
2018-12-05T05:28:06.399Z,10.5
2018-12-05T05:29:18.640Z,9.7
2018-12-05T05:30:30.782Z,9.9
2018-12-05T05:31:43.138Z,10.4
2018-12-05T05:32:55.079Z,10.4
2018-12-05T05:34:07.354Z,10
2018-12-05T05:35:19.472Z,10
2018-12-05T05:36:31.839Z,9.7
2018-12-05T05:37:43.944Z,10.1
2018-12-05T05:38:56.083Z,10.2
2018-12-05T05:40:08.357Z,9.3
2018-12-05T05:41:20.614Z,10
2018-12-05T05:42:32.642Z,10.2
2018-12-05T05:43:45.007Z,9.9
2018-12-05T05:44:57.115Z,10.1
2018-12-05T05:46:09.290Z,9.6
2018-12-05T05:47:21.483Z,9.4
2018-12-05T05:48:33.699Z,9.8
2018-12-05T05:49:45.810Z,9.6
2018-12-05T05:50:57.997Z,9.9
2018-12-05T05:52:10.393Z,10.7
2018-12-05T05:53:22.383Z,9.6
2018-12-05T05:54:34.648Z,10.3
2018-12-05T05:55:46.923Z,10
2018-12-05T05:56:58.968Z,10.4
2018-12-05T05:58:11.245Z,10.1
2018-12-05T05:59:23.363Z,10.2
2018-12-05T06:00:35.560Z,9.4
2018-12-05T06:01:49.665Z,9.3
2018-12-05T06:03:00.054Z,9.7
2018-12-05T06:04:12.221Z,9.9
2018-12-05T06:05:24.327Z,9
2018-12-05T06:06:36.692Z,9.3
2018-12-05T06:07:48.714Z,9
2018-12-05T06:09:00.978Z,9.4
2018-12-05T06:10:13.250Z,9.9
2018-12-05T06:11:25.331Z,9.7
2018-12-05T06:12:37.562Z,9.3
2018-12-05T06:13:49.838Z,8.7
2018-12-05T06:15:01.975Z,8.9
2018-12-05T06:16:14.160Z,9
2018-12-05T06:17:26.341Z,8.7
2018-12-05T06:18:38.573Z,9.5
2018-12-05T06:19:50.758Z,8.5
2018-12-05T06:21:02.932Z,8.1
2018-12-05T06:22:15.151Z,8.8
2018-12-05T06:23:27.237Z,8.6
2018-12-05T06:24:39.600Z,8.3
2018-12-05T06:25:51.626Z,8
2018-12-05T06:27:03.836Z,8.3
2018-12-05T06:28:16.112Z,7.8
2018-12-05T06:29:28.319Z,8.8
2018-12-05T06:30:40.398Z,7.9
2018-12-05T06:31:52.685Z,8.6
2018-12-05T06:33:04.900Z,8.6
2018-12-05T06:34:16.980Z,8.3
2018-12-05T06:35:29.268Z,8.6
2018-12-05T06:36:41.466Z,8.3
2018-12-05T06:37:53.640Z,7.8
2018-12-05T06:39:05.843Z,8.2
2018-12-05T06:40:18.122Z,8.3
2018-12-05T06:41:30.223Z,8.1
2018-12-05T06:42:42.430Z,8.3
2018-12-05T06:43:54.541Z,8.9
2018-12-05T06:45:06.733Z,8.1
2018-12-05T06:46:19.014Z,8.9
2018-12-05T06:47:31.120Z,7.8
2018-12-05T06:48:43.312Z,7.8
2018-12-05T06:49:55.542Z,8.4
2018-12-05T06:51:07.840Z,8.3
2018-12-05T06:52:19.986Z,8.1
2018-12-05T06:53:32.168Z,7.5
2018-12-05T06:54:44.371Z,8.1
2018-12-05T06:55:56.477Z,8.5
2018-12-05T06:57:08.685Z,8.3
2018-12-05T06:58:20.986Z,8.5
2018-12-05T06:59:33.056Z,8.3
2018-12-05T07:00:45.318Z,8.2
2018-12-05T07:01:57.441Z,8
2018-12-05T07:03:09.795Z,8.1
2018-12-05T07:04:22.008Z,8.6
2018-12-05T07:05:34.199Z,8.5
2018-12-05T07:06:46.219Z,8.2
2018-12-05T07:07:58.507Z,8.5
2018-12-05T07:09:10.753Z,7.6
2018-12-05T07:10:22.883Z,7.8
2018-12-05T07:11:35.074Z,8.7
2018-12-05T07:12:47.189Z,8
2018-12-05T07:13:59.389Z,8.7
2018-12-05T07:15:11.652Z,8.2
2018-12-05T07:16:23.867Z,8.2
2018-12-05T07:17:35.968Z,8.5
2018-12-05T07:18:48.284Z,8.2
2018-12-05T07:20:00.455Z,8.6
2018-12-05T07:21:12.542Z,8
2018-12-05T07:22:24.738Z,8.6
2018-12-05T07:23:37.020Z,8.4
2018-12-05T07:24:49.632Z,8.5
2018-12-05T07:26:01.332Z,8.1
2018-12-05T07:27:13.677Z,8.3
2018-12-05T07:28:25.742Z,7.7
2018-12-05T07:29:38.094Z,8.3
2018-12-05T07:30:50.099Z,7.7
2018-12-05T07:32:02.374Z,8.2
2018-12-05T07:33:14.619Z,8.1
2018-12-05T07:34:26.801Z,8
2018-12-05T07:35:38.948Z,7.8
2018-12-05T07:36:51.168Z,8.1
2018-12-05T07:38:03.344Z,7.8
2018-12-05T07:39:15.555Z,8.4
2018-12-05T07:40:27.755Z,8
2018-12-05T07:41:40.021Z,8
2018-12-05T07:42:52.115Z,8.2
2018-12-05T07:44:04.305Z,8
2018-12-05T07:45:16.471Z,7.7
2018-12-05T07:46:28.628Z,7.8
2018-12-05T07:47:40.915Z,7.5
2018-12-05T07:48:53.053Z,7.2
2018-12-05T07:50:05.404Z,7.7
2018-12-05T07:51:17.539Z,7.4
2018-12-05T07:52:29.692Z,7.7
2018-12-05T07:53:41.968Z,7.7
2018-12-05T07:54:54.077Z,7.5
2018-12-05T07:56:06.180Z,7.5
2018-12-05T07:57:18.370Z,7.4
2018-12-05T07:58:30.600Z,7.4
2018-12-05T07:59:42.830Z,7.7
2018-12-05T08:00:54.961Z,7.5
2018-12-05T08:02:07.244Z,7.1
2018-12-05T08:03:19.342Z,6.8
2018-12-05T08:04:31.647Z,7.4
2018-12-05T08:05:43.722Z,6.9
2018-12-05T08:06:55.935Z,7.1
2018-12-05T08:08:08.304Z,6.8
2018-12-05T08:09:20.325Z,6.7
2018-12-05T08:10:32.603Z,6.7
2018-12-05T08:11:44.710Z,7
2018-12-05T08:12:56.911Z,7.2
2018-12-05T08:14:09.161Z,6.8
2018-12-05T08:15:21.370Z,6.9
2018-12-05T08:16:33.639Z,7.1
2018-12-05T08:17:45.763Z,6.8
2018-12-05T08:18:57.862Z,7
2018-12-05T08:20:10.095Z,6.6
2018-12-05T08:21:22.244Z,6.8
2018-12-05T08:22:34.602Z,6.8
2018-12-05T08:23:46.658Z,7.1
2018-12-05T08:24:58.924Z,6.7
2018-12-05T08:26:11.026Z,6.4
2018-12-05T08:27:23.394Z,6.7
2018-12-05T08:28:35.573Z,7.2
2018-12-05T08:29:47.610Z,6.3
2018-12-05T08:30:59.868Z,6.4
2018-12-05T08:32:12.074Z,6.7
2018-12-05T08:33:24.266Z,6.5
2018-12-05T08:34:36.461Z,6.6
2018-12-05T08:35:48.666Z,6.8
2018-12-05T08:37:00.932Z,6.7
2018-12-05T08:38:12.962Z,6.2
2018-12-05T08:39:28.411Z,6.8
2018-12-05T08:40:37.523Z,6.7
2018-12-05T08:41:50.080Z,6.8
2018-12-05T08:43:01.734Z,6.6
2018-12-05T08:44:13.940Z,6.7
2018-12-05T08:45:26.203Z,6.4
2018-12-05T08:46:38.322Z,6.6
2018-12-05T08:47:50.596Z,6.4
2018-12-05T08:49:02.784Z,6.7
2018-12-05T08:50:14.900Z,6.1
2018-12-05T08:51:27.169Z,6.3
2018-12-05T08:52:39.380Z,6.5
2018-12-05T08:53:51.581Z,6.2
2018-12-05T08:55:03.765Z,6.2
2018-12-05T08:56:15.874Z,6.4
2018-12-05T08:57:28.060Z,6.8
2018-12-05T08:58:40.329Z,6.6
2018-12-05T08:59:52.593Z,6.5
2018-12-05T09:01:04.738Z,6.4
2018-12-05T09:02:16.928Z,6.5
2018-12-05T09:03:29.099Z,6.7
2018-12-05T09:04:41.332Z,7.2
2018-12-05T09:05:53.587Z,6.9
2018-12-05T09:07:06.044Z,6.5
2018-12-05T09:08:17.910Z,7.2
2018-12-05T09:09:30.020Z,6.6
2018-12-05T09:10:42.283Z,6.4
2018-12-05T09:11:54.392Z,6.4
2018-12-05T09:13:06.743Z,6.6
2018-12-05T09:14:18.881Z,7.1
2018-12-05T09:15:30.973Z,7.6
2018-12-05T09:16:43.347Z,6.6
2018-12-05T09:17:55.438Z,7
2018-12-05T09:19:07.704Z,6.8
2018-12-05T09:20:19.842Z,7.1
2018-12-05T09:21:31.945Z,7
2018-12-05T09:22:44.240Z,7.2
2018-12-05T09:23:56.456Z,6.9
2018-12-05T09:25:08.706Z,7.4
2018-12-05T09:26:20.800Z,7.4
2018-12-05T09:27:33.081Z,8
2018-12-05T09:28:45.215Z,7.3
2018-12-05T09:29:57.401Z,6.8
2018-12-05T09:31:09.610Z,7.3
2018-12-05T09:32:21.689Z,7.4
2018-12-05T09:33:34.042Z,7
2018-12-05T09:34:46.077Z,7.5
2018-12-05T09:35:58.364Z,7.1
2018-12-05T09:37:11.755Z,7.1
2018-12-05T09:38:22.748Z,7.5
2018-12-05T09:39:34.862Z,7.4
2018-12-05T09:40:47.143Z,7.4
2018-12-05T09:41:59.408Z,7.6
2018-12-05T09:43:11.438Z,7.3
2018-12-05T09:44:23.636Z,7.7
2018-12-05T09:45:35.897Z,7.4
2018-12-05T09:46:48.166Z,7.2
2018-12-05T09:48:00.222Z,7.6
2018-12-05T09:49:12.419Z,7.6
2018-12-05T09:50:24.670Z,7.5
2018-12-05T09:51:36.868Z,7.7
2018-12-05T09:52:49.164Z,7.4
2018-12-05T09:54:01.383Z,8
2018-12-05T09:55:13.386Z,7.5
2018-12-05T09:56:25.814Z,7.5
2018-12-05T09:57:37.766Z,7.8
2018-12-05T09:58:49.956Z,8.1
2018-12-05T10:00:02.321Z,7.5
2018-12-05T10:01:14.423Z,7.4
2018-12-05T10:02:26.548Z,7.5
2018-12-05T10:03:38.809Z,8
2018-12-05T10:04:51.044Z,8.1
2018-12-05T10:06:03.284Z,7.8
2018-12-05T10:07:15.430Z,7.8
2018-12-05T10:08:27.677Z,7.7
2018-12-05T10:09:39.781Z,7.8
2018-12-05T10:10:51.992Z,7
2018-12-05T10:12:04.212Z,7.6
2018-12-05T10:13:16.371Z,7.9
2018-12-05T10:14:28.569Z,7.8
2018-12-05T10:15:40.816Z,7.6
2018-12-05T10:16:52.956Z,7.7
2018-12-05T10:18:05.070Z,7.3
2018-12-05T10:19:17.338Z,7.4
2018-12-05T10:20:29.543Z,7.7
2018-12-05T10:21:41.709Z,7.6
2018-12-05T10:22:53.849Z,8.3
2018-12-05T10:24:06.080Z,7.8
2018-12-05T10:25:18.310Z,8
2018-12-05T10:26:30.499Z,8.2
2018-12-05T10:27:42.606Z,8.2
2018-12-05T10:28:54.906Z,7.8
2018-12-05T10:30:07.194Z,7.9
2018-12-05T10:31:20.052Z,8.1
2018-12-05T10:32:31.418Z,8.1
2018-12-05T10:33:43.595Z,7.3
2018-12-05T10:34:55.775Z,8.4
2018-12-05T10:36:07.983Z,7.9
2018-12-05T10:37:20.251Z,7.3
2018-12-05T10:38:34.814Z,7.4
2018-12-05T10:39:44.713Z,7.9
2018-12-05T10:40:56.941Z,7.9
2018-12-05T10:42:09.146Z,8.3
2018-12-05T10:43:21.244Z,7.7
2018-12-05T10:44:33.328Z,7.3
2018-12-05T10:45:45.643Z,8
2018-12-05T10:46:57.807Z,8
2018-12-05T10:48:09.910Z,8.1
2018-12-05T10:49:22.189Z,8.5
2018-12-05T10:50:34.384Z,8
2018-12-05T10:51:46.574Z,7.6
2018-12-05T10:52:58.829Z,7.9
2018-12-05T10:54:10.900Z,8.3
2018-12-05T10:55:23.073Z,8.4
2018-12-05T10:56:35.364Z,8
2018-12-05T10:57:47.466Z,7.7
2018-12-05T10:58:59.746Z,8.1
2018-12-05T11:00:11.858Z,8
2018-12-05T11:01:24.050Z,8
2018-12-05T11:02:36.301Z,8.4
2018-12-05T11:03:48.644Z,8.3
2018-12-05T11:05:00.838Z,8.2
2018-12-05T11:06:12.901Z,7.7
2018-12-05T11:07:25.037Z,8
2018-12-05T11:08:37.198Z,8.1
2018-12-05T11:09:49.401Z,8.2
2018-12-05T11:11:01.711Z,8.2
2018-12-05T11:12:13.867Z,8
2018-12-05T11:13:26.146Z,8.3
2018-12-05T11:14:38.259Z,8.4
2018-12-05T11:15:50.470Z,8.6
2018-12-05T11:17:02.650Z,8.1
2018-12-05T11:18:14.824Z,8.8
2018-12-05T11:19:26.957Z,8.9
2018-12-05T11:20:39.204Z,8.4
2018-12-05T11:21:51.501Z,8.4
2018-12-05T11:23:03.705Z,8.5
2018-12-05T11:24:15.725Z,8.5
2018-12-05T11:25:27.923Z,8.4
2018-12-05T11:26:40.184Z,8.5
2018-12-05T11:27:52.479Z,8.5
2018-12-05T11:29:04.591Z,7.8
2018-12-05T11:30:16.877Z,8.1
2018-12-05T11:31:28.893Z,8
2018-12-05T11:32:41.080Z,9.1
2018-12-05T11:33:53.439Z,8.3
2018-12-05T11:35:05.541Z,8.9
2018-12-05T11:36:17.713Z,8.7
2018-12-05T11:37:29.901Z,8.1
2018-12-05T11:38:42.050Z,7.5
2018-12-05T11:39:54.322Z,8.5
2018-12-05T11:41:06.614Z,7.9
2018-12-05T11:42:18.625Z,8
2018-12-05T11:43:30.914Z,8.3
2018-12-05T11:44:43.020Z,8.1
2018-12-05T11:45:55.276Z,8
2018-12-05T11:47:07.411Z,8.2
2018-12-05T11:48:19.605Z,8
2018-12-05T11:49:31.909Z,8.4
2018-12-05T11:50:44.009Z,8.5
2018-12-05T11:51:56.273Z,8.4
2018-12-05T11:53:08.491Z,8.1
2018-12-05T11:54:20.654Z,7.9
2018-12-05T11:55:32.833Z,8.3
2018-12-05T11:56:45.051Z,7.8
2018-12-05T11:57:57.150Z,8.1
2018-12-05T11:59:09.340Z,8
2018-12-05T12:00:21.627Z,7.4
2018-12-05T12:01:34.135Z,8
2018-12-05T12:02:46.022Z,7.5
2018-12-05T12:03:58.215Z,7.9
2018-12-05T12:05:10.487Z,7.8
2018-12-05T12:06:22.584Z,7.6
2018-12-05T12:07:34.769Z,8
2018-12-05T12:08:47.073Z,8.3
2018-12-05T12:09:59.088Z,7.7
2018-12-05T12:11:11.383Z,8.1
2018-12-05T12:12:23.573Z,7.7
2018-12-05T12:13:35.838Z,7.6
2018-12-05T12:14:47.936Z,7.9
2018-12-05T12:16:00.139Z,8.1
2018-12-05T12:17:12.354Z,7.6
2018-12-05T12:18:24.544Z,7.4
2018-12-05T12:19:36.715Z,8.5
2018-12-05T12:20:48.926Z,7.9
2018-12-05T12:22:01.180Z,7.4
2018-12-05T12:23:13.329Z,8.4
2018-12-05T12:24:25.423Z,7.9
2018-12-05T12:25:37.696Z,7.8
2018-12-05T12:26:49.890Z,7.8
2018-12-05T12:28:02.095Z,7.8
2018-12-05T12:29:14.353Z,7.7
2018-12-05T12:30:26.474Z,8.8
2018-12-05T12:31:38.701Z,7.9
2018-12-05T12:32:50.851Z,8
2018-12-05T12:34:03.048Z,7.5
2018-12-05T12:35:15.158Z,7.8
2018-12-05T12:36:27.361Z,7.5
2018-12-05T12:37:39.640Z,7.9
2018-12-05T12:38:51.743Z,7.8
2018-12-05T12:40:03.937Z,8.1
2018-12-05T12:41:16.274Z,7.6
2018-12-05T12:42:28.375Z,8.1
2018-12-05T12:43:40.650Z,7.4
2018-12-05T12:44:52.710Z,7.9
2018-12-05T12:46:04.901Z,7.7
2018-12-05T12:47:17.137Z,7.8
2018-12-05T12:48:29.288Z,7.4
2018-12-05T12:49:41.790Z,8
2018-12-05T12:50:53.747Z,7.1
2018-12-05T12:52:05.869Z,7.5
2018-12-05T12:53:18.227Z,8.1
2018-12-05T12:54:30.329Z,8.1
2018-12-05T12:55:42.446Z,8
2018-12-05T12:56:54.738Z,8.7
2018-12-05T12:58:06.834Z,7.8
2018-12-05T12:59:19.306Z,8
2018-12-05T13:00:31.312Z,8.1
2018-12-05T13:01:43.433Z,7.3
2018-12-05T13:02:55.703Z,7.7
2018-12-05T13:04:07.980Z,7.7
2018-12-05T13:05:20.100Z,7.4
2018-12-05T13:06:32.292Z,7.8
2018-12-05T13:07:44.464Z,7.7
2018-12-05T13:08:56.584Z,7.8
2018-12-05T13:10:08.788Z,7.6
2018-12-05T13:11:21.163Z,7.7
2018-12-05T13:12:33.167Z,8.4
2018-12-05T13:13:45.366Z,7.8
2018-12-05T13:14:57.580Z,7.5
2018-12-05T13:16:09.751Z,7.5
2018-12-05T13:17:22.523Z,7.6
2018-12-05T13:18:34.249Z,7.7
2018-12-05T13:19:46.350Z,7.8
2018-12-05T13:20:58.636Z,7.8
2018-12-05T13:22:10.796Z,8.4
2018-12-05T13:23:23.024Z,7.9
2018-12-05T13:24:35.128Z,7.7
2018-12-05T13:25:47.441Z,7.4
2018-12-05T13:26:59.596Z,8.2
2018-12-05T13:28:11.737Z,7.7
2018-12-05T13:29:24.038Z,7.4
2018-12-05T13:30:36.116Z,7.7
2018-12-05T13:31:48.355Z,8.2
2018-12-05T13:33:00.673Z,7.8
2018-12-05T13:34:12.831Z,8.2
2018-12-05T13:35:24.909Z,8.3
2018-12-05T13:36:37.149Z,8.2
2018-12-05T13:37:49.339Z,8.2
2018-12-05T13:39:01.456Z,7.7
2018-12-05T13:40:13.671Z,8.2
2018-12-05T13:41:26.026Z,8.3
2018-12-05T13:42:38.129Z,7.7
2018-12-05T13:43:50.453Z,7.9
2018-12-05T13:45:02.502Z,8
2018-12-05T13:46:14.631Z,8.3
2018-12-05T13:47:27.011Z,8
2018-12-05T13:48:39.102Z,8.1
2018-12-05T13:49:51.414Z,8.3
2018-12-05T13:51:03.499Z,8.1
2018-12-05T13:52:15.615Z,8.1
2018-12-05T13:53:27.801Z,7.8
2018-12-05T13:54:40.000Z,8.3
2018-12-05T13:55:52.195Z,7.4
2018-12-05T13:57:04.463Z,8.1
2018-12-05T13:58:16.679Z,7.9
2018-12-05T13:59:28.893Z,8.1
2018-12-05T14:00:41.346Z,8
2018-12-05T14:01:53.333Z,8
2018-12-05T14:03:05.478Z,7.7
2018-12-05T14:04:17.746Z,8.1
2018-12-05T14:05:29.928Z,8.2
2018-12-05T14:06:41.991Z,8.3
2018-12-05T14:07:54.352Z,7.6
2018-12-05T14:09:06.344Z,7.8
2018-12-05T14:10:18.615Z,8
2018-12-05T14:11:30.928Z,8.3
2018-12-05T14:12:42.937Z,8.1
2018-12-05T14:13:55.605Z,8.1
2018-12-05T14:15:07.329Z,7.8
2018-12-05T14:16:19.595Z,8.3
2018-12-05T14:17:31.876Z,7.6
2018-12-05T14:18:43.995Z,8.6
2018-12-05T14:19:56.139Z,8.8
2018-12-05T14:21:08.387Z,8.4
2018-12-05T14:22:20.499Z,8.4
2018-12-05T14:23:32.840Z,7.4
2018-12-05T14:24:44.958Z,8.8
2018-12-05T14:25:57.245Z,8.2
2018-12-05T14:27:09.387Z,8.1
2018-12-05T14:28:21.461Z,7.7
2018-12-05T14:29:33.914Z,8.4
2018-12-05T14:30:45.880Z,8.6
2018-12-05T14:31:58.056Z,8.5
2018-12-05T14:33:10.313Z,9
2018-12-05T14:34:22.442Z,8.9
2018-12-05T14:35:34.722Z,8
2018-12-05T14:36:46.846Z,8.6
2018-12-05T14:37:59.109Z,7.7
2018-12-05T14:39:11.287Z,8.5
2018-12-05T14:40:23.479Z,7.7
2018-12-05T14:41:35.782Z,8.1
2018-12-05T14:42:47.973Z,8.7
2018-12-05T14:44:00.036Z,8.4
2018-12-05T14:45:12.393Z,8.4
2018-12-05T14:46:24.402Z,7.7
2018-12-05T14:47:36.677Z,7.9
2018-12-05T14:48:48.857Z,8
2018-12-05T14:50:00.978Z,8.8
2018-12-05T14:51:13.178Z,8.1
2018-12-05T14:52:25.425Z,8.2
2018-12-05T14:53:37.653Z,8.1
2018-12-05T14:54:49.828Z,8
2018-12-05T14:56:01.960Z,7.5
2018-12-05T14:57:14.250Z,8.3
2018-12-05T14:58:26.360Z,8.3
2018-12-05T14:59:38.718Z,8.2
2018-12-05T15:00:52.730Z,8.5
2018-12-05T15:02:02.942Z,8.5
2018-12-05T15:03:15.208Z,8.5
2018-12-05T15:04:27.411Z,8.2
2018-12-05T15:05:39.688Z,8.2
2018-12-05T15:06:51.928Z,8.2
2018-12-05T15:08:03.983Z,9.3
2018-12-05T15:09:16.208Z,8.8
2018-12-05T15:10:28.368Z,9.3
2018-12-05T15:11:40.739Z,9
2018-12-05T15:12:52.688Z,8.9
2018-12-05T15:14:05.063Z,8.7
2018-12-05T15:15:17.079Z,8.8
2018-12-05T15:16:29.345Z,8.4
2018-12-05T15:17:41.572Z,9
2018-12-05T15:18:53.673Z,8.9
2018-12-05T15:20:05.889Z,8.9
2018-12-05T15:21:18.138Z,8.7
2018-12-05T15:22:30.338Z,8.5
2018-12-05T15:23:42.654Z,9
2018-12-05T15:24:54.718Z,9.1
2018-12-05T15:26:06.996Z,8.9
2018-12-05T15:27:19.112Z,8.5
2018-12-05T15:28:31.328Z,8.4
2018-12-05T15:29:43.593Z,9.1
2018-12-05T15:30:55.770Z,9.1
2018-12-05T15:32:07.875Z,9
2018-12-05T15:33:20.195Z,8.3
2018-12-05T15:34:32.212Z,8.3
2018-12-05T15:35:44.497Z,8.8
2018-12-05T15:36:56.597Z,9.1
2018-12-05T15:38:08.865Z,8.8
2018-12-05T15:39:21.063Z,9.6
2018-12-05T15:40:33.292Z,8.7
2018-12-05T15:41:45.461Z,9.7
2018-12-05T15:42:57.745Z,9
2018-12-05T15:44:09.771Z,8.8
2018-12-05T15:45:22.124Z,8.8
2018-12-05T15:46:34.297Z,9.2
2018-12-05T15:47:46.454Z,9.6
2018-12-05T15:48:58.677Z,9.3
2018-12-05T15:50:10.935Z,9.3
2018-12-05T15:51:22.949Z,9.7
2018-12-05T15:52:35.231Z,9.3
2018-12-05T15:53:47.498Z,8.5
2018-12-05T15:54:59.697Z,9.4
2018-12-05T15:56:11.947Z,9.9
2018-12-05T15:57:23.992Z,9.8
2018-12-05T15:58:36.276Z,10.1
2018-12-05T15:59:48.507Z,9.9
2018-12-05T16:01:00.515Z,9.4
2018-12-05T16:02:12.781Z,9.9
2018-12-05T16:03:24.912Z,9.4
2018-12-05T16:04:37.267Z,10.1
2018-12-05T16:05:49.457Z,9.3
2018-12-05T16:07:01.480Z,10.1
2018-12-05T16:08:13.686Z,9.7
2018-12-05T16:09:26.049Z,9.7
2018-12-05T16:10:38.067Z,10
2018-12-05T16:11:51.970Z,9.9
2018-12-05T16:13:02.462Z,9.8
2018-12-05T16:14:14.660Z,9.7
2018-12-05T16:15:26.898Z,8.9
2018-12-05T16:16:39.055Z,9
2018-12-05T16:17:51.403Z,9.5
2018-12-05T16:19:03.535Z,10.2
2018-12-05T16:20:15.711Z,9.9
2018-12-05T16:21:29.035Z,9.8
2018-12-05T16:22:40.102Z,9.4
2018-12-05T16:23:52.214Z,9.9
2018-12-05T16:25:04.413Z,9.4
2018-12-05T16:26:16.793Z,9.4
2018-12-05T16:27:28.900Z,9.8
2018-12-05T16:28:41.008Z,9.6
2018-12-05T16:29:53.307Z,10
2018-12-05T16:31:05.463Z,10.3